Historique des mesures à Cassis (13260), France
Quotidien Résumé Juin 24, 2017 Unités:  US    Métrique   Métrique/US
« Précédent (Jour)
Suivant (Jour) »
Quotidien Hebdomadaire Mensuel Annuel Période au choix
  Maximum: Minimum: Moyenne:
Température: 32 °F 74.8 °F 80.4 °F
Point de rosée: 32 °F 64.8 °F 68 °F
Humidité: Humidity % 49 % 63 %
Vitesse du vent: WindSpeedKMH mph 0.0 mph 3.2 mph
Rafales: WindSpeedGustKMH mph - -
Vent:- - South
Pression: 0 in 29.8 in -
Précipitations: 0 in    
Historical Graphs
 
 
Mesures pour : Juin 24, 2017
Heure Temperature Point de rosée Pression Vent Vitesse du vent Rafales Humidité Pluie (par heure) Conditions
32 °F 32 °F 0 in Calm     Humidity % 0 in SoftwareType W/m2
00:10 78.4 °F 67.8 °F 29.9 in NW 6.1 mph 6.1 mph 70 % 0 in open2300-1.11 W/m2
01:10 78.1 °F 68.7 °F 29.9 in Calm     73 % 0 in open2300-1.11 W/m2
02:10 76.8 °F 67.5 °F 29.9 in Calm     73 % 0 in open2300-1.11 W/m2
03:10 76.6 °F 67.6 °F 29.9 in Calm   1.1 mph 74 % 0 in open2300-1.11 W/m2
05:10 75.9 °F 67.5 °F 29.9 in Calm     75 % 0 in open2300-1.11 W/m2
06:10 74.8 °F 66.7 °F 29.9 in Calm     76 % 0 in open2300-1.11 W/m2
07:10 75 °F 66.9 °F 29.9 in Calm     76 % 0 in open2300-1.11 W/m2
08:10 80.4 °F 70.5 °F 29.9 in South 2.6 mph 2.6 mph 72 % 0 in open2300-1.11 W/m2
09:10 79.7 °F 70.7 °F 29.9 in SSE 6.4 mph 6.4 mph 74 % 0 in open2300-1.11 W/m2
10:10 80.8 °F 72.1 °F 29.9 in SSE 1.1 mph 6.4 mph 75 % 0 in open2300-1.11 W/m2
11:10 85.8 °F 74.1 °F 29.9 in SSE 2.9 mph 9.0 mph 68 % 0 in open2300-1.11 W/m2
12:11 88.5 °F 74.8 °F 29.9 in SSW 5.0 mph 5.0 mph 64 % 0 in open2300-1.11 W/m2
13:10 89.4 °F 74.7 °F 29.9 in WSW 6.8 mph 8.2 mph 62 % 0 in open2300-1.11 W/m2
14:11 89.4 °F 74.1 °F 29.9 in SE 4.0 mph 7.2 mph 61 % 0 in open2300-1.11 W/m2
15:10 89.2 °F 74.5 °F 29.9 in South 1.8 mph 9.7 mph 62 % 0 in open2300-1.11 W/m2
16:10 88.9 °F 73.2 °F 29.9 in SE 5.0 mph 8.2 mph 60 % 0 in open2300-1.11 W/m2
17:10 87.8 °F 70.7 °F 29.9 in SSE 13.4 mph 13.4 mph 57 % 0 in open2300-1.11 W/m2
18:10 88.7 °F 67.1 °F 29.8 in South 1.4 mph 10.1 mph 49 % 0 in open2300-1.11 W/m2
19:10 87.1 °F 66.7 °F 29.8 in SW 6.1 mph 6.1 mph 51 % 0 in open2300-1.11 W/m2
20:10 84.2 °F 64.8 °F 29.9 in SSW 8.2 mph 8.2 mph 52 % 0 in open2300-1.11 W/m2
21:11 81.7 °F 64.9 °F 29.9 in SE 2.6 mph 2.9 mph 57 % 0 in open2300-1.11 W/m2
22:11 79.7 °F 67.3 °F 29.9 in WSW 3.5 mph 8.7 mph 66 % 0 in open2300-1.11 W/m2
23:10 79 °F 68.4 °F 29.9 in Calm     70 % 0 in open2300-1.11 W/m2
Observations météo à CASSIS
WU-History script by Weather Underground - 1 mb